Wetterdaten: Woche 16.03.15 - 22.03.15 (KW12)
Datum Zeit Temp. A. Feuchte A. Luftdruck Regen Wind Richtung Taupunkt Windchill Windben
16.03.2015 00:00 6,1 C 83 % 1030,3 hPa 0,0 l/m 2,0 km/h N 3,3 C 6,1 C 9,6 km/h
16.03.2015 01:00 5,2 C 84 % 1030,4 hPa 0,0 l/m 0,9 km/h N 2,7 C 5,2 C 8,1 km/h
16.03.2015 02:00 4,6 C 85 % 1030,2 hPa 0,0 l/m 1,3 km/h N 2,3 C 4,6 C 8,4 km/h
16.03.2015 03:00 3,9 C 85 % 1029,9 hPa 0,0 l/m 0,1 km/h N 1,6 C 3,9 C 2,4 km/h
16.03.2015 04:00 3,4 C 85 % 1030,2 hPa 0,0 l/m 0,5 km/h N 1,1 C 3,4 C 4,0 km/h
16.03.2015 05:00 3,2 C 85 % 1030,6 hPa 0,0 l/m 0,3 km/h N 0,9 C 3,2 C 3,6 km/h
16.03.2015 06:00 3,6 C 84 % 1031,0 hPa 0,0 l/m 0,2 km/h N 1,2 C 3,6 C 3,6 km/h
16.03.2015 07:00 4,9 C 84 % 1031,3 hPa 0,0 l/m 1,8 km/h N 2,3 C 4,9 C 9,3 km/h
16.03.2015 08:00 6,2 C 85 % 1031,4 hPa 0,0 l/m 3,3 km/h N 3,8 C 6,2 C 14,1 km/h
16.03.2015 09:00 7,7 C 81 % 1031,2 hPa 0,0 l/m 5,0 km/h N 4,6 C 7,7 C 18,1 km/h
16.03.2015 10:00 8,6 C 78 % 1031,0 hPa 0,0 l/m 5,1 km/h N 5,0 C 8,6 C 18,1 km/h
16.03.2015 11:00 10,2 C 72 % 1030,6 hPa 0,0 l/m 7,3 km/h N 5,4 C 9,3 C 19,3 km/h
16.03.2015 12:00 11,7 C 64 % 1030,7 hPa 0,0 l/m 7,8 km/h N 5,1 C 10,7 C 23,3 km/h
16.03.2015 13:00 12,5 C 57 % 1030,6 hPa 0,0 l/m 9,4 km/h N 4,2 C 10,7 C 24,9 km/h
16.03.2015 14:00 12,4 C 57 % 1030,3 hPa 0,0 l/m 8,2 km/h N 4,2 C 11,3 C 23,3 km/h
16.03.2015 15:00 12,8 C 55 % 1030,0 hPa 0,0 l/m 8,5 km/h N 3,9 C 11,5 C 24,9 km/h
16.03.2015 16:00 12,4 C 56 % 1030,1 hPa 0,0 l/m 8,4 km/h N 3,8 C 11,1 C 21,7 km/h
16.03.2015 17:00 11,7 C 60 % 1030,5 hPa 0,0 l/m 5,3 km/h N 4,0 C 11,6 C 16,1 km/h
16.03.2015 18:00 10,8 C 63 % 1030,9 hPa 0,0 l/m 2,6 km/h N 4,0 C 10,8 C 9,7 km/h
16.03.2015 19:00 9,8 C 67 % 1031,2 hPa 0,0 l/m 0,6 km/h N 3,9 C 9,8 C 4,8 km/h
16.03.2015 20:00 8,9 C 70 % 1031,5 hPa 0,0 l/m 0,1 km/h N 3,7 C 8,9 C 2,8 km/h
16.03.2015 21:00 8,3 C 74 % 1031,6 hPa 0,0 l/m 0,3 km/h N 3,8 C 8,3 C 2,8 km/h
16.03.2015 22:00 7,7 C 76 % 1031,7 hPa 0,0 l/m 0,3 km/h N 3,6 C 7,7 C 4,4 km/h
16.03.2015 23:00 7,0 C 77 % 1031,6 hPa 0,0 l/m 0,2 km/h N 3,3 C 7,0 C 3,2 km/h
17.03.2015 00:00 6,5 C 79 % 1031,6 hPa 0,0 l/m 0,6 km/h N 3,2 C 6,5 C 6,4 km/h
17.03.2015 01:00 6,3 C 80 % 1031,5 hPa 0,0 l/m 1,8 km/h N 3,0 C 6,3 C 8,9 km/h
17.03.2015 02:00 5,9 C 81 % 1031,2 hPa 0,0 l/m 1,8 km/h N 2,9 C 5,9 C 7,6 km/h
17.03.2015 03:00 5,2 C 82 % 1031,4 hPa 0,0 l/m 0,6 km/h N 2,3 C 5,2 C 5,2 km/h
17.03.2015 04:00 4,8 C 83 % 1031,5 hPa 0,0 l/m 0,6 km/h N 2,2 C 4,8 C 6,0 km/h
17.03.2015 05:00 4,4 C 84 % 1031,8 hPa 0,0 l/m 0,2 km/h N 1,9 C 4,4 C 3,2 km/h
17.03.2015 06:00 4,2 C 84 % 1032,3 hPa 0,0 l/m 0,4 km/h N 1,7 C 4,2 C 3,7 km/h
17.03.2015 07:00 4,2 C 84 % 1032,5 hPa 0,0 l/m 0,0 km/h N 1,7 C 4,2 C 0,0 km/h
17.03.2015 09:00 6,9 C 77 % 1033,1 hPa 0,0 l/m 5,3 km/h N 3,0 C 6,9 C 12,9 km/h
17.03.2015 10:00 7,6 C 74 % 1032,9 hPa 0,0 l/m 3,7 km/h N 3,2 C 7,6 C 13,7 km/h
17.03.2015 11:00 8,9 C 70 % 1032,5 hPa 0,0 l/m 2,5 km/h N 3,7 C 8,9 C 11,3 km/h
17.03.2015 12:00 11,2 C 61 % 1031,8 hPa 0,0 l/m 3,9 km/h N 3,8 C 11,2 C 15,3 km/h
17.03.2015 13:00 12,5 C 54 % 1030,7 hPa 0,0 l/m 5,6 km/h N 3,5 C 12,4 C 16,9 km/h
17.03.2015 14:00 13,1 C 49 % 1030,0 hPa 0,0 l/m 5,3 km/h N 2,6 C 13,0 C 17,3 km/h
17.03.2015 15:00 12,4 C 50 % 1029,6 hPa 0,0 l/m 3,4 km/h N 2,2 C 12,4 C 13,3 km/h
17.03.2015 16:00 12,0 C 51 % 1029,1 hPa 0,0 l/m 3,7 km/h N 2,0 C 12,0 C 13,3 km/h
17.03.2015 17:00 11,2 C 53 % 1028,9 hPa 0,0 l/m 1,4 km/h N 1,8 C 11,2 C 9,2 km/h
17.03.2015 18:00 9,2 C 58 % 1029,0 hPa 0,0 l/m 0,0 km/h N 1,2 C 9,2 C 0,4 km/h
17.03.2015 19:00 5,9 C 65 % 1029,0 hPa 0,0 l/m 0,0 km/h N -0,2 C 5,9 C 0,0 km/h
17.03.2015 20:00 3,9 C 74 % 1028,6 hPa 0,0 l/m 0,2 km/h N -0,3 C 3,9 C 0,8 km/h
17.03.2015 21:00 4,0 C 78 % 1028,0 hPa 0,0 l/m 0,2 km/h N 0,4 C 4,0 C 2,8 km/h
17.03.2015 22:00 3,1 C 77 % 1028,0 hPa 0,0 l/m 0,0 km/h N -0,5 C 3,1 C 0,0 km/h
17.03.2015 23:00 2,0 C 79 % 1027,6 hPa 0,0 l/m 0,0 km/h N -1,2 C 2,0 C 0,0 km/h
18.03.2015 00:00 1,0 C 81 % 1027,4 hPa 0,0 l/m 0,0 km/h N -1,9 C 1,0 C 0,0 km/h
18.03.2015 01:00 0,1 C 84 % 1027,2 hPa 0,0 l/m 0,0 km/h N -2,2 C 0,1 C 0,0 km/h
18.03.2015 02:00 -0,3 C 84 % 1027,0 hPa 0,0 l/m 0,0 km/h N -2,7 C -0,3 C 0,4 km/h
18.03.2015 03:00 -0,7 C 85 % 1027,1 hPa 0,0 l/m 0,1 km/h N -2,9 C -0,7 C 1,2 km/h
18.03.2015 04:00 -0,7 C 85 % 1027,4 hPa 0,0 l/m 0,1 km/h N -2,9 C -0,7 C 1,6 km/h
18.03.2015 05:00 -1,1 C 85 % 1027,8 hPa 0,0 l/m 0,0 km/h N -3,3 C -1,1 C 0,0 km/h
18.03.2015 06:00 -1,3 C 85 % 1028,0 hPa 0,0 l/m 0,0 km/h N -3,5 C -1,3 C 0,0 km/h
18.03.2015 07:00 -0,9 C 85 % 1028,6 hPa 0,0 l/m 0,0 km/h N -3,1 C -0,9 C 0,0 km/h
18.03.2015 08:00 2,7 C 83 % 1028,4 hPa 0,0 l/m 0,0 km/h N -0,0 C 2,7 C 3,2 km/h
18.03.2015 09:00 7,7 C 57 % 1028,1 hPa 0,0 l/m 2,4 km/h N -0,4 C 7,7 C 9,6 km/h
18.03.2015 10:00 9,8 C 47 % 1027,8 hPa 0,0 l/m 3,2 km/h N -1,2 C 9,8 C 12,9 km/h
18.03.2015 11:00 10,8 C 46 % 1027,4 hPa 0,0 l/m 1,6 km/h N -0,4 C 10,8 C 15,3 km/h
18.03.2015 12:00 11,3 C 44 % 1027,1 hPa 0,0 l/m 1,6 km/h N -0,6 C 11,3 C 10,5 km/h
18.03.2015 13:00 12,3 C 43 % 1026,3 hPa 0,0 l/m 1,6 km/h N -0,1 C 12,3 C 11,3 km/h
18.03.2015 14:00 12,5 C 42 % 1025,8 hPa 0,0 l/m 1,6 km/h N -0,1 C 12,5 C 14,4 km/h
18.03.2015 15:00 12,4 C 38 % 1025,3 hPa 0,0 l/m 1,6 km/h N -1,5 C 12,4 C 11,3 km/h
18.03.2015 16:00 12,3 C 41 % 1024,9 hPa 0,0 l/m 0,0 km/h N -0,6 C 12,3 C 8,9 km/h
18.03.2015 17:00 11,1 C 44 % 1024,9 hPa 0,0 l/m 0,2 km/h N -0,7 C 11,1 C 4,0 km/h
18.03.2015 18:00 9,0 C 49 % 1025,2 hPa 0,0 l/m 0,0 km/h N -1,2 C 9,0 C 0,4 km/h
18.03.2015 19:00 5,9 C 57 % 1025,3 hPa 0,0 l/m 0,0 km/h N -2,0 C 5,9 C 0,0 km/h
18.03.2015 20:00 3,6 C 65 % 1025,2 hPa 0,0 l/m 0,0 km/h N -2,5 C 3,6 C 0,0 km/h
18.03.2015 21:00 2,8 C 70 % 1024,9 hPa 0,0 l/m 0,6 km/h N -2,2 C 2,8 C 2,4 km/h
18.03.2015 22:00 4,0 C 65 % 1024,4 hPa 0,0 l/m 1,6 km/h N -2,1 C 4,0 C 4,4 km/h
18.03.2015 23:00 3,1 C 66 % 1024,3 hPa 0,0 l/m 0,8 km/h N -2,6 C 3,1 C 4,8 km/h
19.03.2015 00:00 2,1 C 70 % 1024,4 hPa 0,0 l/m 0,5 km/h N -2,8 C 2,1 C 3,6 km/h
19.03.2015 01:00 0,9 C 73 % 1024,1 hPa 0,0 l/m 0,1 km/h N -3,4 C 0,9 C 1,6 km/h
19.03.2015 02:00 0,5 C 76 % 1023,9 hPa 0,0 l/m 0,4 km/h N -3,3 C 0,5 C 3,6 km/h
19.03.2015 03:00 -0,4 C 77 % 1024,1 hPa 0,0 l/m 0,0 km/h N -4,0 C -0,4 C 0,0 km/h
19.03.2015 04:00 -1,3 C 80 % 1024,4 hPa 0,0 l/m 0,0 km/h N -4,4 C -1,3 C 0,4 km/h
19.03.2015 05:00 -1,6 C 82 % 1024,7 hPa 0,0 l/m 0,0 km/h N -4,3 C -1,6 C 0,0 km/h
19.03.2015 06:00 -1,6 C 83 % 1025,2 hPa 0,0 l/m 0,0 km/h N -4,2 C -1,6 C 0,8 km/h
19.03.2015 07:00 1,3 C 78 % 1025,8 hPa 0,0 l/m 3,1 km/h N -2,1 C 1,3 C 8,9 km/h
19.03.2015 08:00 4,6 C 64 % 1026,3 hPa 0,0 l/m 5,6 km/h N -1,6 C 4,6 C 12,5 km/h
19.03.2015 09:00 6,2 C 60 % 1026,4 hPa 0,0 l/m 3,8 km/h N -1,1 C 6,2 C 9,7 km/h
19.03.2015 10:00 7,7 C 56 % 1026,4 hPa 0,0 l/m 2,9 km/h N -0,6 C 7,7 C 11,7 km/h
19.03.2015 11:00 9,0 C 52 % 1026,1 hPa 0,0 l/m 4,6 km/h N -0,3 C 9,0 C 14,9 km/h
19.03.2015 12:00 10,1 C 49 % 1025,7 hPa 0,0 l/m 4,6 km/h N -0,0 C 10,1 C 13,7 km/h
19.03.2015 13:00 10,9 C 47 % 1025,1 hPa 0,0 l/m 3,5 km/h N -0,1 C 10,9 C 10,5 km/h
19.03.2015 14:00 11,6 C 47 % 1024,7 hPa 0,0 l/m 2,8 km/h N 0,5 C 11,6 C 11,6 km/h
19.03.2015 15:00 11,7 C 47 % 1024,5 hPa 0,0 l/m 1,6 km/h N 0,8 C 11,7 C 9,7 km/h
19.03.2015 16:00 11,1 C 48 % 1024,4 hPa 0,0 l/m 1,4 km/h N 0,5 C 11,1 C 7,3 km/h
19.03.2015 17:00 10,3 C 49 % 1024,5 hPa 0,0 l/m 0,1 km/h N 0,2 C 10,3 C 3,2 km/h
19.03.2015 18:00 8,2 C 54 % 1024,9 hPa 0,0 l/m 0,0 km/h N -0,6 C 8,2 C 1,6 km/h
19.03.2015 19:00 5,3 C 62 % 1025,2 hPa 0,0 l/m 0,0 km/h N -1,5 C 5,3 C 0,0 km/h
19.03.2015 20:00 3,4 C 68 % 1025,5 hPa 0,0 l/m 0,0 km/h N -1,9 C 3,4 C 0,4 km/h
19.03.2015 21:00 2,7 C 72 % 1025,5 hPa 0,0 l/m 0,2 km/h N -1,8 C 2,7 C 2,0 km/h
19.03.2015 22:00 2,4 C 72 % 1025,5 hPa 0,0 l/m 0,2 km/h N -2,1 C 2,4 C 3,6 km/h
19.03.2015 23:00 0,9 C 76 % 1025,4 hPa 0,0 l/m 0,1 km/h N -2,8 C 0,9 C 0,8 km/h
20.03.2015 00:00 0,9 C 77 % 1025,2 hPa 0,0 l/m 0,2 km/h N -2,6 C 0,9 C 2,8 km/h
20.03.2015 01:00 0,9 C 77 % 1025,2 hPa 0,0 l/m 0,3 km/h N -2,6 C 0,9 C 3,2 km/h
20.03.2015 02:00 0,6 C 77 % 1024,9 hPa 0,0 l/m 0,3 km/h N -2,9 C 0,6 C 2,8 km/h
20.03.2015 03:00 -0,3 C 78 % 1024,8 hPa 0,0 l/m 0,3 km/h N -3,6 C -0,3 C 2,4 km/h
20.03.2015 04:00 -1,5 C 81 % 1025,0 hPa 0,0 l/m 0,0 km/h N -4,4 C -1,5 C 0,0 km/h
20.03.2015 05:00 -2,1 C 83 % 1025,1 hPa 0,0 l/m 0,0 km/h N -4,7 C -2,1 C 0,0 km/h
20.03.2015 06:00 -2,2 C 84 % 1025,7 hPa 0,0 l/m 0,1 km/h N -4,6 C -2,2 C 1,2 km/h
20.03.2015 07:00 -0,9 C 85 % 1025,9 hPa 0,0 l/m 0,0 km/h N -3,1 C -0,9 C 0,0 km/h
20.03.2015 08:00 3,4 C 81 % 1025,8 hPa 0,0 l/m 0,5 km/h N 0,4 C 3,4 C 3,6 km/h
20.03.2015 09:00 7,1 C 64 % 1025,8 hPa 0,0 l/m 1,5 km/h N 0,8 C 7,1 C 6,0 km/h
20.03.2015 10:00 7,6 C 61 % 1025,7 hPa 0,0 l/m 0,4 km/h N 0,4 C 7,6 C 4,0 km/h
20.03.2015 11:00 8,0 C 61 % 1025,4 hPa 0,0 l/m 0,5 km/h N 0,8 C 8,0 C 5,2 km/h
20.03.2015 12:00 9,6 C 57 % 1024,9 hPa 0,0 l/m 1,5 km/h N 1,4 C 9,6 C 8,0 km/h
20.03.2015 13:00 10,5 C 51 % 1024,1 hPa 0,0 l/m 1,5 km/h N 0,8 C 10,5 C 8,0 km/h
20.03.2015 14:00 11,0 C 47 % 1023,4 hPa 0,0 l/m 0,9 km/h N 0,2 C 11,0 C 7,6 km/h
20.03.2015 15:00 11,4 C 45 % 1022,8 hPa 0,0 l/m 0,4 km/h N -0,0 C 11,4 C 4,4 km/h
20.03.2015 16:00 11,4 C 45 % 1022,2 hPa 0,0 l/m 0,4 km/h N -0,1 C 11,4 C 5,6 km/h
20.03.2015 17:00 10,5 C 47 % 1021,8 hPa 0,0 l/m 0,4 km/h N -0,4 C 10,5 C 4,4 km/h
20.03.2015 18:00 8,7 C 51 % 1021,8 hPa 0,0 l/m 0,0 km/h N -1,0 C 8,7 C 1,2 km/h
20.03.2015 19:00 5,5 C 59 % 1021,9 hPa 0,0 l/m 0,0 km/h N -2,0 C 5,5 C 0,0 km/h
20.03.2015 20:00 3,1 C 69 % 1021,8 hPa 0,0 l/m 0,0 km/h N -2,1 C 3,1 C 0,0 km/h
20.03.2015 21:00 1,5 C 74 % 1021,4 hPa 0,0 l/m 0,0 km/h N -2,6 C 1,5 C 0,0 km/h
20.03.2015 22:00 0,3 C 79 % 1021,0 hPa 0,0 l/m 0,0 km/h N -3,0 C 0,3 C 0,8 km/h
20.03.2015 23:00 -0,4 C 82 % 1020,2 hPa 0,0 l/m 0,0 km/h N -3,2 C -0,4 C 0,0 km/h
21.03.2015 00:00 -0,7 C 82 % 1019,6 hPa 0,0 l/m 0,0 km/h N -3,4 C -0,7 C 0,8 km/h
21.03.2015 01:00 -1,1 C 83 % 1019,2 hPa 0,0 l/m 0,2 km/h N -3,6 C -1,1 C 1,6 km/h
21.03.2015 02:00 -0,6 C 83 % 1018,6 hPa 0,0 l/m 0,4 km/h N -3,2 C -0,6 C 2,4 km/h
21.03.2015 03:00 -1,5 C 83 % 1018,1 hPa 0,0 l/m 0,0 km/h N -4,1 C -1,5 C 0,8 km/h
21.03.2015 04:00 -2,2 C 84 % 1017,8 hPa 0,0 l/m 0,0 km/h N -4,5 C -2,2 C 0,0 km/h
21.03.2015 05:00 -2,3 C 85 % 1017,7 hPa 0,0 l/m 0,0 km/h N -4,5 C -2,3 C 1,2 km/h
21.03.2015 06:00 -2,6 C 85 % 1017,7 hPa 0,0 l/m 0,0 km/h N -4,8 C -2,6 C 0,0 km/h
21.03.2015 07:00 -1,4 C 85 % 1017,7 hPa 0,0 l/m 0,0 km/h N -3,7 C -1,4 C 0,8 km/h
21.03.2015 08:00 2,5 C 84 % 1017,5 hPa 0,0 l/m 0,3 km/h N -0,0 C 2,5 C 3,2 km/h
21.03.2015 09:00 6,1 C 70 % 1017,0 hPa 0,0 l/m 1,3 km/h N 1,0 C 6,1 C 5,6 km/h
21.03.2015 10:00 7,8 C 64 % 1016,4 hPa 0,0 l/m 1,3 km/h N 1,3 C 7,8 C 5,6 km/h
21.03.2015 11:00 10,0 C 58 % 1015,6 hPa 0,0 l/m 1,3 km/h N 2,2 C 10,0 C 6,8 km/h
21.03.2015 12:00 12,1 C 52 % 1014,7 hPa 0,0 l/m 1,1 km/h N 2,4 C 12,1 C 7,2 km/h
21.03.2015 13:00 13,7 C 47 % 1013,4 hPa 0,0 l/m 1,3 km/h N 2,6 C 13,7 C 8,9 km/h
21.03.2015 14:00 14,8 C 42 % 1012,7 hPa 0,0 l/m 1,8 km/h N 2,0 C 14,8 C 8,8 km/h
21.03.2015 15:00 15,2 C 43 % 1012,2 hPa 0,0 l/m 1,0 km/h N 2,8 C 15,2 C 9,3 km/h
21.03.2015 16:00 15,2 C 44 % 1011,9 hPa 0,0 l/m 1,0 km/h N 3,0 C 15,2 C 8,4 km/h
21.03.2015 17:00 14,6 C 45 % 1011,8 hPa 0,0 l/m 0,3 km/h N 2,6 C 14,6 C 4,0 km/h
21.03.2015 18:00 13,2 C 48 % 1012,1 hPa 0,0 l/m 0,1 km/h N 2,4 C 13,2 C 2,8 km/h
21.03.2015 19:00 11,1 C 57 % 1012,1 hPa 0,0 l/m 0,0 km/h N 2,8 C 11,1 C 0,0 km/h
21.03.2015 20:00 9,6 C 63 % 1012,1 hPa 0,0 l/m 0,2 km/h N 2,8 C 9,6 C 1,6 km/h
21.03.2015 21:00 8,8 C 66 % 1012,2 hPa 0,0 l/m 0,2 km/h N 2,8 C 8,8 C 2,0 km/h
21.03.2015 22:00 8,4 C 66 % 1012,1 hPa 0,0 l/m 0,1 km/h N 2,5 C 8,4 C 2,0 km/h
21.03.2015 23:00 7,8 C 68 % 1012,2 hPa 0,0 l/m 0,1 km/h N 2,2 C 7,8 C 0,8 km/h
22.03.2015 00:00 6,9 C 72 % 1012,3 hPa 0,0 l/m 0,1 km/h N 2,2 C 6,9 C 2,4 km/h
22.03.2015 01:00 8,3 C 66 % 1012,5 hPa 0,0 l/m 2,6 km/h N 2,3 C 8,3 C 9,2 km/h
22.03.2015 02:00 11,0 C 55 % 1012,6 hPa 0,0 l/m 11,7 km/h N 2,2 C 7,9 C 26,5 km/h
22.03.2015 03:00 9,6 C 60 % 1013,7 hPa 0,0 l/m 10,5 km/h N 2,2 C 6,9 C 23,7 km/h
22.03.2015 04:00 8,1 C 68 % 1014,4 hPa 0,0 l/m 9,4 km/h N 2,6 C 5,9 C 21,7 km/h
22.03.2015 05:00 7,5 C 71 % 1015,5 hPa 0,0 l/m 5,9 km/h N 2,6 C 7,3 C 16,5 km/h
22.03.2015 06:00 7,3 C 72 % 1016,7 hPa 0,0 l/m 4,4 km/h N 2,5 C 7,3 C 11,7 km/h
22.03.2015 07:00 7,6 C 68 % 1017,7 hPa 0,0 l/m 6,1 km/h N 2,1 C 7,4 C 16,1 km/h
22.03.2015 08:00 7,7 C 68 % 1018,7 hPa 0,0 l/m 8,0 km/h N 2,1 C 6,5 C 20,1 km/h
22.03.2015 09:00 7,8 C 67 % 1019,5 hPa 0,0 l/m 9,8 km/h N 2,1 C 5,3 C 22,5 km/h
22.03.2015 10:00 7,8 C 67 % 1020,0 hPa 0,0 l/m 8,8 km/h N 2,1 C 5,9 C 21,3 km/h
22.03.2015 11:00 7,8 C 69 % 1020,1 hPa 0,0 l/m 8,9 km/h N 2,3 C 5,9 C 18,9 km/h
22.03.2015 12:00 8,1 C 66 % 1020,3 hPa 0,0 l/m 9,4 km/h N 2,2 C 6,0 C 22,5 km/h
22.03.2015 13:00 8,6 C 63 % 1019,9 hPa 0,0 l/m 9,5 km/h N 1,8 C 6,4 C 22,9 km/h
22.03.2015 14:00 9,5 C 61 % 1019,8 hPa 0,0 l/m 6,8 km/h N 2,3 C 9,1 C 18,5 km/h
22.03.2015 15:00 9,2 C 60 % 1020,1 hPa 0,0 l/m 7,8 km/h N 1,7 C 8,2 C 18,9 km/h
22.03.2015 16:00 8,0 C 62 % 1020,4 hPa 0,0 l/m 7,2 km/h N 1,1 C 7,5 C 18,9 km/h
22.03.2015 17:00 7,2 C 63 % 1020,9 hPa 0,0 l/m 7,2 km/h N 0,5 C 6,4 C 16,9 km/h
22.03.2015 18:00 6,5 C 64 % 1021,5 hPa 0,0 l/m 5,4 km/h N 0,1 C 6,5 C 17,3 km/h
22.03.2015 19:00 5,4 C 65 % 1022,1 hPa 0,0 l/m 4,5 km/h N -0,6 C 5,4 C 11,3 km/h
22.03.2015 20:00 4,6 C 66 % 1022,9 hPa 0,0 l/m 3,8 km/h N -1,1 C 4,6 C 11,7 km/h
22.03.2015 21:00 3,4 C 69 % 1023,1 hPa 0,0 l/m 2,4 km/h N -1,8 C 3,4 C 10,1 km/h
22.03.2015 22:00 2,4 C 71 % 1023,2 hPa 0,0 l/m 3,3 km/h N -2,4 C 2,4 C 11,3 km/h
22.03.2015 23:00 1,5 C 72 % 1023,1 hPa 0,0 l/m 3,5 km/h N -3,0 C 1,5 C 10,1 km/h
Min-Datum _ 21.03.15 18.03.15 21.03.15 - 16.03.15 - 20.03.15 21.03.15 16.03.15
_ Min-Zeit 06:30 15:00 16:30 - 03:30 - 06:00 06:30 03:30
Minimum _ -2,8 C 38 % 1011,8 hPa - 0,0 km/h - -4,9 C -2,7 C 0,0 km/h
Max-Datum _ 21.03.15 18.03.15 17.03.15 16.03.15 22.03.15 - 16.03.15 21.03.15 22.03.15
_ Max-Zeit 15:45 01:45 09:31 00:00 02:45 - 11:00 15:30 02:45
Maximum _ 15,5 C 89 % 1033,1 hPa 0,0 l/m 13,5 km/h
N
- 6,1 C 15,4 C 30,6 km/h
N
Durchschnitt _ 6,2 C 67 % 1024,3 hPa #0,0 l/m 2,1 km/h N 0,2 C 6,0 C 7,5 km/h